createdAt,value
2022-10-02T00:02:05.791Z,18.17
2022-10-02T00:04:40.407Z,17.63
2022-10-02T00:07:11.524Z,17.05
2022-10-02T00:09:46.071Z,17.88
2022-10-02T00:12:18.625Z,18.08
2022-10-02T00:14:53.353Z,18.23
2022-10-02T00:17:27.220Z,17.58
2022-10-02T00:19:55.926Z,16.50
2022-10-02T00:22:42.501Z,17.13
2022-10-02T00:25:18.918Z,17.65
2022-10-02T00:28:12.351Z,18.35
2022-10-02T00:30:56.223Z,16.20
2022-10-02T00:33:33.112Z,17.67
2022-10-02T00:36:12.891Z,17.52
2022-10-02T00:38:51.358Z,18.33
2022-10-02T00:41:53.199Z,19.00
2022-10-02T00:47:04.231Z,17.95
2022-10-02T00:49:50.077Z,17.67
2022-10-02T00:52:41.109Z,20.20
2022-10-02T00:55:32.287Z,17.53
2022-10-02T00:58:13.955Z,17.35
2022-10-02T01:00:48.734Z,18.17
2022-10-02T01:03:23.065Z,17.15
2022-10-02T01:05:51.786Z,18.15
2022-10-02T01:08:19.663Z,17.02
2022-10-02T01:10:51.328Z,16.15
2022-10-02T01:13:19.223Z,19.42
2022-10-02T01:15:53.280Z,19.63
2022-10-02T01:18:22.843Z,16.05
2022-10-02T01:20:52.830Z,16.77
2022-10-02T01:23:28.576Z,17.80
2022-10-02T01:25:58.327Z,18.38
2022-10-02T01:28:26.903Z,17.80
2022-10-02T01:31:00.779Z,17.02
2022-10-02T01:33:28.731Z,16.63
2022-10-02T01:35:56.803Z,17.73
2022-10-02T01:38:25.503Z,16.73
2022-10-02T01:40:57.758Z,16.50
2022-10-02T01:43:29.002Z,19.40
2022-10-02T01:46:16.874Z,16.63
2022-10-02T01:48:51.509Z,17.02
2022-10-02T01:51:32.320Z,17.45
2022-10-02T01:54:12.548Z,18.02
2022-10-02T01:56:49.873Z,19.13
2022-10-02T01:59:29.944Z,18.45
2022-10-02T02:02:10.190Z,20.27
2022-10-02T02:04:44.124Z,18.55
2022-10-02T02:07:18.392Z,20.13
2022-10-02T02:09:56.599Z,22.45
2022-10-02T02:12:37.463Z,22.27
2022-10-02T02:15:11.902Z,25.20
2022-10-02T02:17:48.455Z,26.38
2022-10-02T02:20:19.012Z,27.27
2022-10-02T02:22:49.524Z,27.07
2022-10-02T02:25:19.753Z,28.13
2022-10-02T02:28:06.346Z,25.13
2022-10-02T02:30:37.508Z,26.88
2022-10-02T02:33:10.462Z,25.00
2022-10-02T02:35:42.756Z,24.40
2022-10-02T02:38:15.308Z,23.88
2022-10-02T02:40:45.757Z,23.23
2022-10-02T02:43:21.018Z,22.13
2022-10-02T02:45:54.837Z,20.92
2022-10-02T02:48:26.582Z,22.15
2022-10-02T02:50:58.712Z,20.90
2022-10-02T02:53:32.119Z,21.88
2022-10-02T02:56:02.376Z,21.38
2022-10-02T02:58:35.052Z,21.88
2022-10-02T03:01:02.849Z,20.13
2022-10-02T03:03:30.494Z,18.30
2022-10-02T03:06:04.227Z,11.32
2022-10-02T03:08:35.912Z,6.85
2022-10-02T03:11:12.182Z,6.90
2022-10-02T03:13:56.142Z,7.22
2022-10-02T03:16:38.776Z,6.47
2022-10-02T03:19:31.647Z,7.05
2022-10-02T03:22:10.858Z,6.80
2022-10-02T03:24:47.249Z,6.75
2022-10-02T03:27:20.866Z,6.90
2022-10-02T03:29:57.924Z,6.03
2022-10-02T03:32:28.461Z,6.15
2022-10-02T03:34:57.179Z,5.85
2022-10-02T03:37:25.507Z,5.20
2022-10-02T03:39:53.197Z,5.57
2022-10-02T03:42:25.348Z,5.57
2022-10-02T03:44:54.454Z,6.18
2022-10-02T03:47:22.074Z,5.15
2022-10-02T03:49:49.701Z,5.45
2022-10-02T03:52:19.238Z,5.80
2022-10-02T03:54:49.183Z,5.15
2022-10-02T03:59:53.955Z,4.82
2022-10-02T04:02:33.020Z,5.95
2022-10-02T04:05:08.176Z,5.50
2022-10-02T04:07:40.525Z,5.53
2022-10-02T04:10:30.520Z,5.63
2022-10-02T04:13:04.611Z,5.78
2022-10-02T04:15:43.432Z,6.57
2022-10-02T04:18:21.574Z,5.82
2022-10-02T04:20:53.377Z,5.30
2022-10-02T04:23:26.802Z,6.10
2022-10-02T04:26:00.541Z,6.40
2022-10-02T04:28:37.681Z,5.82
2022-10-02T04:31:10.659Z,6.78
2022-10-02T04:33:40.807Z,6.70
2022-10-02T04:36:25.634Z,6.25
2022-10-02T04:39:11.818Z,6.25
2022-10-02T04:41:56.788Z,6.35
2022-10-02T04:44:40.269Z,5.60
2022-10-02T04:47:30.948Z,5.72
2022-10-02T04:50:19.883Z,4.97
2022-10-02T04:53:09.120Z,4.57
2022-10-02T04:55:52.702Z,4.00
2022-10-02T05:01:01.627Z,4.18
2022-10-02T05:03:43.593Z,4.10
2022-10-02T05:06:28.465Z,3.78
2022-10-02T05:09:12.047Z,3.92
2022-10-02T05:12:02.295Z,4.15
2022-10-02T05:14:47.270Z,3.58
2022-10-02T05:17:37.956Z,4.30
2022-10-02T05:20:35.857Z,3.22
2022-10-02T05:23:17.794Z,4.13
2022-10-02T05:26:14.250Z,4.13
2022-10-02T05:28:57.386Z,4.53
2022-10-02T05:31:35.898Z,3.78
2022-10-02T05:34:22.653Z,4.07
2022-10-02T05:37:08.293Z,4.55
2022-10-02T05:39:45.956Z,3.70
2022-10-02T05:42:21.066Z,3.72
2022-10-02T05:44:54.529Z,3.47
2022-10-02T05:47:28.918Z,3.65
2022-10-02T05:50:00.540Z,3.65
2022-10-02T05:52:36.060Z,4.78
2022-10-02T05:55:15.432Z,3.80
2022-10-02T05:57:48.599Z,3.30
2022-10-02T06:00:30.206Z,3.63
2022-10-02T06:03:10.018Z,4.30
2022-10-02T06:05:46.492Z,4.30
2022-10-02T06:08:17.970Z,3.22
2022-10-02T06:10:51.455Z,3.33
2022-10-02T06:13:25.287Z,4.35
2022-10-02T06:16:01.774Z,3.80
2022-10-02T06:18:33.372Z,4.95
2022-10-02T06:21:05.561Z,4.82
2022-10-02T06:23:39.491Z,4.07
2022-10-02T06:26:13.231Z,3.78
2022-10-02T06:28:43.944Z,5.63
2022-10-02T06:31:18.869Z,6.72
2022-10-02T06:33:46.623Z,7.85
2022-10-02T06:36:37.208Z,6.95
2022-10-02T06:39:23.584Z,8.60
2022-10-02T06:42:07.000Z,7.78
2022-10-02T06:44:42.370Z,9.82
2022-10-02T06:47:24.106Z,10.20
2022-10-02T06:50:11.909Z,11.65
2022-10-02T06:52:47.782Z,12.45
2022-10-02T06:55:32.728Z,12.98
2022-10-02T06:58:19.468Z,18.67
2022-10-02T07:00:53.530Z,17.58
2022-10-02T07:03:44.647Z,18.48
2022-10-02T07:06:19.893Z,20.98
2022-10-02T07:09:05.450Z,18.02
2022-10-02T07:11:46.051Z,16.58
2022-10-02T07:14:30.679Z,15.43
2022-10-02T07:17:13.068Z,15.27
2022-10-02T07:20:09.246Z,15.20
2022-10-02T07:22:59.722Z,15.25
2022-10-02T07:25:48.389Z,15.68
2022-10-02T07:28:27.742Z,15.65
2022-10-02T07:31:04.167Z,16.77
2022-10-02T07:33:48.875Z,15.20
2022-10-02T07:36:30.384Z,15.35
2022-10-02T07:39:15.755Z,14.98
2022-10-02T07:42:18.230Z,15.35
2022-10-02T07:45:04.703Z,14.00
2022-10-02T07:47:57.177Z,15.55
2022-10-02T07:50:35.407Z,16.58
2022-10-02T07:53:13.234Z,18.20
2022-10-02T07:55:43.661Z,19.33
2022-10-02T07:58:17.850Z,19.42
2022-10-02T08:00:49.782Z,18.98
2022-10-02T08:03:24.437Z,18.02
2022-10-02T08:05:54.927Z,17.33
2022-10-02T08:08:28.763Z,15.10
2022-10-02T08:11:03.204Z,17.00
2022-10-02T08:13:36.934Z,16.42
2022-10-02T08:16:05.631Z,13.38
2022-10-02T08:18:38.715Z,13.43
2022-10-02T08:21:12.552Z,13.95
2022-10-02T08:23:45.462Z,12.68
2022-10-02T08:26:20.171Z,13.45
2022-10-02T08:28:54.885Z,11.43
2022-10-02T08:31:22.832Z,11.85
2022-10-02T08:33:51.920Z,10.45
2022-10-02T08:37:08.268Z,11.40
2022-10-02T08:40:02.401Z,11.05
2022-10-02T08:43:02.936Z,9.65
2022-10-02T08:46:12.344Z,10.10
2022-10-02T08:49:16.919Z,10.45
2022-10-02T08:52:09.319Z,12.60
2022-10-02T08:54:59.356Z,11.10
2022-10-02T08:57:56.660Z,11.23
2022-10-02T09:00:31.706Z,11.88
2022-10-02T09:03:46.704Z,13.93
2022-10-02T09:06:39.529Z,13.63
2022-10-02T09:09:53.300Z,13.32
2022-10-02T09:12:50.664Z,12.43
2022-10-02T09:15:22.826Z,12.25
2022-10-02T09:18:13.153Z,11.68
2022-10-02T09:21:11.436Z,11.32
2022-10-02T09:24:23.226Z,9.68
2022-10-02T09:27:26.587Z,10.25
2022-10-02T09:30:26.519Z,10.15
2022-10-02T09:33:27.556Z,10.57
2022-10-02T09:36:55.003Z,10.40
2022-10-02T09:39:57.426Z,11.30
2022-10-02T09:42:56.953Z,10.88
2022-10-02T09:46:01.098Z,9.75
2022-10-02T09:49:07.527Z,9.75
2022-10-02T09:52:17.489Z,9.55
2022-10-02T09:55:27.498Z,7.93
2022-10-02T09:58:24.651Z,7.45
2022-10-02T10:01:28.626Z,7.03
2022-10-02T10:04:33.864Z,6.72
2022-10-02T10:07:42.345Z,6.25
2022-10-02T10:10:32.811Z,6.25
2022-10-02T10:13:37.079Z,5.95
2022-10-02T10:16:45.776Z,5.90
2022-10-02T10:19:58.018Z,6.05
2022-10-02T10:23:02.027Z,5.55
2022-10-02T10:26:03.646Z,4.82
2022-10-02T10:29:08.329Z,5.13
2022-10-02T10:32:15.895Z,4.00
2022-10-02T10:35:15.552Z,5.07
2022-10-02T10:37:55.111Z,5.00
2022-10-02T10:40:31.619Z,4.88
2022-10-02T10:43:36.260Z,4.65
2022-10-02T10:46:42.004Z,4.63
2022-10-02T10:49:45.214Z,5.10
2022-10-02T10:52:27.837Z,4.50
2022-10-02T10:55:11.068Z,5.38
2022-10-02T10:57:56.326Z,5.32
2022-10-02T11:00:25.907Z,5.07
2022-10-02T11:03:23.872Z,5.28
2022-10-02T11:06:24.396Z,4.85
2022-10-02T11:09:31.362Z,6.20
2022-10-02T11:12:50.109Z,5.93
2022-10-02T11:15:56.235Z,6.10
2022-10-02T11:18:37.644Z,6.00
2022-10-02T11:21:23.289Z,7.32
2022-10-02T11:24:08.635Z,6.57
2022-10-02T11:26:51.838Z,7.70
2022-10-02T11:29:52.243Z,6.75
2022-10-02T11:32:48.619Z,7.55
2022-10-02T11:35:29.480Z,6.53
2022-10-02T11:38:22.685Z,6.87
2022-10-02T11:41:15.094Z,7.70
2022-10-02T11:44:04.572Z,7.53
2022-10-02T11:46:57.015Z,7.35
2022-10-02T11:49:50.622Z,8.13
2022-10-02T11:52:43.639Z,8.50
2022-10-02T11:55:37.608Z,7.88
2022-10-02T11:58:17.454Z,7.85
2022-10-02T12:01:10.721Z,7.78
2022-10-02T12:03:54.885Z,8.18
2022-10-02T12:06:40.028Z,7.85
2022-10-02T12:09:18.522Z,7.95
2022-10-02T12:11:56.993Z,8.50
2022-10-02T12:14:33.863Z,7.03
2022-10-02T12:17:14.389Z,7.45
2022-10-02T12:19:55.335Z,7.20
2022-10-02T12:22:30.605Z,7.63
2022-10-02T12:25:20.711Z,6.82
2022-10-02T12:28:00.377Z,7.53
2022-10-02T12:30:36.666Z,6.85
2022-10-02T12:33:21.912Z,7.30
2022-10-02T12:36:33.469Z,6.82
2022-10-02T12:39:16.748Z,6.35
2022-10-02T12:42:00.939Z,6.45
2022-10-02T12:45:00.975Z,6.22
2022-10-02T12:48:08.498Z,5.50
2022-10-02T12:51:05.569Z,5.97
2022-10-02T12:53:59.917Z,5.65
2022-10-02T12:57:00.927Z,5.25
2022-10-02T12:59:39.747Z,5.03
2022-10-02T13:03:07.369Z,4.95
2022-10-02T13:05:54.258Z,5.07
2022-10-02T13:08:38.855Z,4.65
2022-10-02T13:11:14.783Z,4.65
2022-10-02T13:14:03.311Z,4.97
2022-10-02T13:16:51.549Z,3.97
2022-10-02T13:19:29.880Z,3.50
2022-10-02T13:22:04.408Z,4.00
2022-10-02T13:24:58.210Z,3.90
2022-10-02T13:27:36.322Z,3.63
2022-10-02T13:30:16.976Z,3.72
2022-10-02T13:33:02.979Z,3.63
2022-10-02T13:35:55.497Z,3.40
2022-10-02T13:38:53.460Z,3.30
2022-10-02T13:41:33.813Z,3.42
2022-10-02T13:44:15.648Z,3.55
2022-10-02T13:47:00.551Z,2.72
2022-10-02T13:49:44.656Z,2.97
2022-10-02T13:52:20.611Z,2.53
2022-10-02T13:55:08.387Z,3.03
2022-10-02T13:57:57.559Z,2.35
2022-10-02T14:00:53.269Z,2.75
2022-10-02T14:03:35.177Z,3.13
2022-10-02T14:06:11.754Z,3.20
2022-10-02T14:09:02.728Z,2.90
2022-10-02T14:11:42.338Z,3.00
2022-10-02T14:14:23.284Z,3.33
2022-10-02T14:17:02.299Z,3.22
2022-10-02T14:19:56.155Z,3.53
2022-10-02T14:22:37.041Z,3.25
2022-10-02T14:25:27.461Z,3.28
2022-10-02T14:28:16.439Z,3.05
2022-10-02T14:31:02.550Z,3.10
2022-10-02T14:33:46.162Z,2.80
2022-10-02T14:36:23.536Z,3.13
2022-10-02T14:39:04.962Z,3.05
2022-10-02T14:41:55.739Z,3.22
2022-10-02T14:44:39.736Z,3.08
2022-10-02T14:47:34.979Z,2.83
2022-10-02T14:50:18.766Z,2.45
2022-10-02T14:53:15.942Z,2.67
2022-10-02T14:56:08.207Z,2.40
2022-10-02T14:58:48.416Z,2.58
2022-10-02T15:01:21.250Z,2.85
2022-10-02T15:04:22.319Z,2.58
2022-10-02T15:07:04.427Z,2.83
2022-10-02T15:09:40.299Z,3.33
2022-10-02T15:12:15.135Z,2.58
2022-10-02T15:14:53.015Z,2.90
2022-10-02T15:17:32.362Z,2.35
2022-10-02T15:20:06.031Z,2.53
2022-10-02T15:22:40.468Z,4.05
2022-10-02T15:25:18.137Z,3.30
2022-10-02T15:28:04.378Z,3.00
2022-10-02T15:30:50.199Z,3.20
2022-10-02T15:33:27.407Z,2.63
2022-10-02T15:36:26.681Z,3.05
2022-10-02T15:39:17.257Z,3.00
2022-10-02T15:41:49.069Z,3.42
2022-10-02T15:44:50.205Z,2.97
2022-10-02T15:47:35.042Z,2.67
2022-10-02T15:50:18.584Z,2.90
2022-10-02T15:52:58.781Z,2.78
2022-10-02T15:55:36.998Z,3.33
2022-10-02T15:58:28.320Z,3.20
2022-10-02T16:01:30.974Z,3.22
2022-10-02T16:04:11.448Z,3.88
2022-10-02T16:06:54.667Z,4.28
2022-10-02T16:09:46.003Z,3.30
2022-10-02T16:12:30.686Z,3.90
2022-10-02T16:15:10.098Z,3.47
2022-10-02T16:18:06.637Z,3.33
2022-10-02T16:20:58.407Z,4.07
2022-10-02T16:23:46.641Z,4.28
2022-10-02T16:26:29.674Z,3.85
2022-10-02T16:29:18.976Z,4.10
2022-10-02T16:32:04.688Z,5.47
2022-10-02T16:34:50.308Z,5.03
2022-10-02T16:37:24.598Z,5.70
2022-10-02T16:40:03.320Z,5.13
2022-10-02T16:42:40.046Z,4.63
2022-10-02T16:45:37.110Z,5.30
2022-10-02T16:48:10.141Z,5.00
2022-10-02T16:50:53.437Z,4.30
2022-10-02T16:53:28.048Z,4.30
2022-10-02T16:56:05.466Z,3.78
2022-10-02T16:58:45.220Z,4.22
2022-10-02T17:01:24.693Z,5.07
2022-10-02T17:04:18.047Z,4.20
2022-10-02T17:06:50.331Z,4.80
2022-10-02T17:09:22.611Z,4.18
2022-10-02T17:11:56.565Z,4.40
2022-10-02T17:14:36.119Z,4.38
2022-10-02T17:17:15.253Z,4.85
2022-10-02T17:19:50.255Z,6.38
2022-10-02T17:22:30.655Z,7.78
2022-10-02T17:25:07.840Z,5.50
2022-10-02T17:27:44.825Z,5.20
2022-10-02T17:30:19.170Z,5.50
2022-10-02T17:33:04.313Z,5.50
2022-10-02T17:35:50.683Z,4.45
2022-10-02T17:38:50.711Z,4.93
2022-10-02T17:41:34.139Z,6.20
2022-10-02T17:44:12.011Z,7.60
2022-10-02T17:47:19.603Z,6.30
2022-10-02T17:50:05.315Z,6.18
2022-10-02T17:52:38.693Z,5.60
2022-10-02T17:55:26.983Z,5.03
2022-10-02T17:58:09.406Z,5.20
2022-10-02T18:00:42.137Z,4.68
2022-10-02T18:03:34.423Z,5.25
2022-10-02T18:06:14.928Z,4.93
2022-10-02T18:09:14.793Z,6.10
2022-10-02T18:12:20.480Z,5.30
2022-10-02T18:15:15.097Z,5.18
2022-10-02T18:17:59.911Z,5.18
2022-10-02T18:20:34.182Z,5.85
2022-10-02T18:23:17.207Z,5.53
2022-10-02T18:26:18.068Z,6.00
2022-10-02T18:29:18.919Z,5.13
2022-10-02T18:32:03.083Z,6.20
2022-10-02T18:34:58.561Z,6.00
2022-10-02T18:37:48.455Z,5.75
2022-10-02T18:40:22.932Z,5.32
2022-10-02T18:43:13.015Z,5.25
2022-10-02T18:45:48.633Z,5.25
2022-10-02T18:48:37.397Z,5.90
2022-10-02T18:51:23.790Z,5.03
2022-10-02T18:54:12.035Z,4.53
2022-10-02T18:56:56.847Z,4.85
2022-10-02T18:59:37.324Z,4.68
2022-10-02T19:02:23.844Z,4.18
2022-10-02T19:05:12.819Z,4.30
2022-10-02T19:07:45.349Z,4.10
2022-10-02T19:10:24.103Z,4.00
2022-10-02T19:12:53.956Z,3.50
2022-10-02T19:15:24.536Z,3.35
2022-10-02T19:18:16.668Z,3.78
2022-10-02T19:20:51.770Z,4.00
2022-10-02T19:23:28.206Z,3.20
2022-10-02T19:26:00.914Z,3.95
2022-10-02T19:28:31.149Z,3.50
2022-10-02T19:31:02.037Z,4.35
2022-10-02T19:33:41.568Z,3.60
2022-10-02T19:36:16.013Z,3.13
2022-10-02T19:38:52.006Z,3.50
2022-10-02T19:41:20.741Z,3.47
2022-10-02T19:43:55.298Z,3.50
2022-10-02T19:46:35.421Z,3.40
2022-10-02T19:49:06.342Z,3.17
2022-10-02T19:51:43.062Z,3.40
2022-10-02T19:54:16.975Z,3.78
2022-10-02T19:56:46.099Z,4.15
2022-10-02T19:59:18.606Z,3.70
2022-10-02T20:01:51.777Z,3.72
2022-10-02T20:04:22.919Z,3.63
2022-10-02T20:06:55.439Z,2.85
2022-10-02T20:09:29.983Z,3.50
2022-10-02T20:12:04.544Z,4.15
2022-10-02T20:14:39.540Z,3.85
2022-10-02T20:17:10.036Z,4.10
2022-10-02T20:19:44.423Z,3.60
2022-10-02T20:22:32.259Z,3.78
2022-10-02T20:25:04.168Z,3.67
2022-10-02T20:27:39.222Z,3.50
2022-10-02T20:30:13.359Z,4.15
2022-10-02T20:32:46.047Z,3.60
2022-10-02T20:35:22.877Z,4.03
2022-10-02T20:37:55.075Z,3.70
2022-10-02T20:40:26.448Z,3.78
2022-10-02T20:45:37.260Z,4.00
2022-10-02T20:48:55.669Z,4.07
2022-10-02T20:51:39.868Z,3.97
2022-10-02T20:54:41.225Z,3.83
2022-10-02T20:58:01.126Z,3.92
2022-10-02T21:00:41.105Z,4.43
2022-10-02T21:03:31.151Z,4.03
2022-10-02T21:06:39.423Z,3.80
2022-10-02T21:09:35.411Z,4.15
2022-10-02T21:12:45.551Z,4.00
2022-10-02T21:15:46.476Z,4.20
2022-10-02T21:18:41.897Z,3.90
2022-10-02T21:21:35.418Z,4.45
2022-10-02T21:24:32.783Z,3.80
2022-10-02T21:27:27.382Z,3.70
2022-10-02T21:30:12.617Z,3.53
2022-10-02T21:32:55.560Z,3.88
2022-10-02T21:35:36.642Z,3.60
2022-10-02T21:38:29.650Z,4.27
2022-10-02T21:41:39.941Z,4.07
2022-10-02T21:45:00.296Z,3.55
2022-10-02T21:47:59.171Z,3.15
2022-10-02T21:50:57.235Z,3.40
2022-10-02T21:54:12.739Z,3.97
2022-10-02T21:57:17.941Z,3.65
2022-10-02T22:00:09.870Z,4.15
2022-10-02T22:03:15.621Z,3.88
2022-10-02T22:06:21.110Z,4.35
2022-10-02T22:09:05.775Z,3.80
2022-10-02T22:11:45.003Z,4.13
2022-10-02T22:14:17.140Z,3.97
2022-10-02T22:19:47.576Z,3.58
2022-10-02T22:22:31.008Z,3.70
2022-10-02T22:25:12.141Z,4.50
2022-10-02T22:27:59.523Z,3.80
2022-10-02T22:30:29.916Z,4.10
2022-10-02T22:33:20.079Z,3.60
2022-10-02T22:36:13.057Z,4.00
2022-10-02T22:38:46.290Z,4.03
2022-10-02T22:41:25.375Z,4.15
2022-10-02T22:43:55.804Z,3.92
2022-10-02T22:46:37.750Z,4.00
2022-10-02T22:49:19.896Z,3.95
2022-10-02T22:51:59.890Z,3.92
2022-10-02T22:54:38.673Z,5.10
2022-10-02T22:57:17.701Z,5.35
2022-10-02T22:59:51.479Z,3.63
2022-10-02T23:02:26.227Z,3.70
2022-10-02T23:05:03.371Z,3.75
2022-10-02T23:07:41.316Z,4.03
2022-10-02T23:10:21.114Z,3.70
2022-10-02T23:12:59.840Z,4.10
2022-10-02T23:15:44.768Z,3.03
2022-10-02T23:18:28.915Z,3.75
2022-10-02T23:21:05.071Z,4.18
2022-10-02T23:23:41.117Z,3.42
2022-10-02T23:26:13.378Z,4.13
2022-10-02T23:28:50.162Z,3.75
2022-10-02T23:31:20.998Z,3.38
2022-10-02T23:33:57.256Z,3.60
2022-10-02T23:36:33.256Z,3.58
2022-10-02T23:39:12.558Z,3.22
2022-10-02T23:41:46.944Z,3.28
2022-10-02T23:44:24.282Z,3.55
2022-10-02T23:47:34.217Z,3.55
2022-10-02T23:50:04.193Z,3.63
2022-10-02T23:53:07.897Z,3.38
2022-10-02T23:55:55.219Z,3.58
2022-10-02T23:58:44.109Z,3.42
